Terminal Aerodrome Forecast
Issued by NWS Charleston, WV

Current Version | Previous Version | Graphics & Text | Print | Product List | Glossary On
Versions: 1 2 3 4 5 6 7 8 9 10 11 12 13 14 15 16 17 18 19 20 21 22 23 24 25 26 27
000
FTUS41 KRLX 181200 AAA
TAFPKB
TAF AMD
KPKB 181247Z 1813/1912 27008G16KT P6SM BKN029 OVC050
     FM181300 28007G17KT P6SM OVC035
     FM181500 28010G21KT P6SM BKN025
     FM190200 30007KT P6SM BKN014=

USA.gov is the U.S. government's official web portal to all federal, state and local government web resources and services.